Time;durP1;ratioP1;P1;durP2;ratioP2;P2;SDS_P1;SDS_P2;PMS_P1;PMS_P2;Temp;Humidity;BMP_temperature;BMP_pressure;BME280_temperature;BME280_humidity;BME280_pressure;Samples;Min_cycle;Max_cycle;Signal;HPM_P1;HPM_P2
2021/01/08 00:00:29;;;;;;;1.27;0.57;;;3.70;99.90;;;;;;5062259;28;20032;-67
2021/01/08 00:02:54;;;;;;;2.25;0.70;;;3.70;99.90;;;;;;5043856;28;20032;-67
2021/01/08 00:05:20;;;;;;;1.55;0.45;;;3.70;99.90;;;;;;5041948;28;20029;-67
2021/01/08 00:07:45;;;;;;;0.70;0.40;;;3.60;99.90;;;;;;5041656;28;20040;-67
2021/01/08 00:10:11;;;;;;;1.08;0.30;;;3.60;99.90;;;;;;5058982;28;20090;-65
2021/01/08 00:12:37;;;;;;;1.88;0.65;;;3.60;99.90;;;;;;5043120;28;20029;-66
2021/01/08 00:15:07;;;;;;;2.40;0.52;;;3.70;99.90;;;;;;5058289;28;20072;-68
2021/01/08 00:17:33;;;;;;;2.22;0.55;;;3.60;99.90;;;;;;5055313;28;20037;-67
2021/01/08 00:19:59;;;;;;;1.27;0.45;;;3.60;99.90;;;;;;5061277;28;20083;-66
2021/01/08 00:22:25;;;;;;;0.73;0.38;;;3.60;99.90;;;;;;5041483;28;20047;-66
2021/01/08 00:24:52;;;;;;;2.05;0.70;;;3.60;99.90;;;;;;5061078;28;20303;-66
2021/01/08 00:27:19;;;;;;;7.82;1.08;;;3.60;99.90;;;;;;5058762;28;20507;-66
2021/01/08 00:29:45;;;;;;;1.45;0.40;;;3.60;99.90;;;;;;5042725;28;20033;-66
2021/01/08 00:32:11;;;;;;;1.50;0.70;;;3.60;99.90;;;;;;5059780;28;20320;-67
2021/01/08 00:34:37;;;;;;;1.73;0.70;;;3.50;99.90;;;;;;5059012;28;20075;-66
2021/01/08 00:37:03;;;;;;;3.05;0.95;;;3.50;99.90;;;;;;5042236;28;20444;-66
2021/01/08 00:39:28;;;;;;;1.60;0.50;;;3.50;99.90;;;;;;5056937;28;20048;-66
2021/01/08 00:41:54;;;;;;;0.80;0.43;;;3.50;99.90;;;;;;5043442;28;20035;-65
2021/01/08 00:44:20;;;;;;;0.90;0.30;;;3.50;99.90;;;;;;5058623;28;20090;-66
2021/01/08 00:46:47;;;;;;;2.20;0.43;;;3.50;99.90;;;;;;5060669;28;20120;-66
2021/01/08 00:49:14;;;;;;;2.63;0.60;;;3.50;99.90;;;;;;5059002;28;20033;-65
2021/01/08 00:51:39;;;;;;;1.40;0.38;;;3.50;99.90;;;;;;5058801;28;20036;-66
2021/01/08 00:54:05;;;;;;;2.80;0.60;;;3.50;99.90;;;;;;5060632;28;20033;-66
2021/01/08 00:56:31;;;;;;;1.58;0.57;;;3.50;99.90;;;;;;5058975;28;20036;-66
2021/01/08 00:58:58;;;;;;;1.95;0.40;;;3.50;99.90;;;;;;5060680;28;20036;-66
2021/01/08 01:01:24;;;;;;;1.63;0.80;;;3.50;99.90;;;;;;5059375;28;20039;-65
2021/01/08 01:03:49;;;;;;;3.05;0.50;;;3.50;99.90;;;;;;5057599;28;20037;-66
2021/01/08 01:06:25;;;;;;;1.90;0.38;;;3.50;99.90;;;;;;5060227;28;20041;-67
2021/01/08 01:08:52;;;;;;;1.70;0.40;;;3.40;99.90;;;;;;5053109;28;20086;-67
2021/01/08 01:11:18;;;;;;;1.08;0.60;;;3.50;99.90;;;;;;5060974;28;20033;-66
2021/01/08 01:13:48;;;;;;;3.00;0.40;;;3.40;99.90;;;;;;5039410;28;20060;-66
2021/01/08 01:16:14;;;;;;;3.95;0.50;;;3.50;99.90;;;;;;5060091;28;20044;-66
2021/01/08 01:18:42;;;;;;;0.68;0.40;;;3.50;99.90;;;;;;5039947;28;20222;-66
2021/01/08 01:21:07;;;;;;;2.33;0.60;;;3.40;99.90;;;;;;5059318;28;20051;-66
2021/01/08 01:23:33;;;;;;;1.95;0.50;;;3.50;99.90;;;;;;5058717;28;20707;-66
2021/01/08 01:25:58;;;;;;;1.65;0.50;;;3.50;99.90;;;;;;5058128;28;20025;-65
2021/01/08 01:28:24;;;;;;;0.95;0.30;;;3.50;99.90;;;;;;5060968;28;20443;-67
2021/01/08 01:30:49;;;;;;;2.80;0.50;;;3.50;99.90;;;;;;5056706;28;20485;-66
2021/01/08 01:33:15;;;;;;;1.25;0.50;;;3.50;99.90;;;;;;5060208;28;20028;-66
2021/01/08 01:35:40;;;;;;;1.45;0.88;;;3.50;99.90;;;;;;5057111;28;20414;-66
2021/01/08 01:38:06;;;;;;;2.65;0.65;;;3.50;99.90;;;;;;5058782;28;20053;-66
2021/01/08 01:40:31;;;;;;;0.85;0.35;;;3.50;99.90;;;;;;5059390;28;20340;-66
2021/01/08 01:42:57;;;;;;;0.90;0.30;;;3.50;99.90;;;;;;5057409;28;20063;-67
2021/01/08 01:45:23;;;;;;;2.70;0.70;;;3.50;99.90;;;;;;5060439;28;20070;-67
2021/01/08 01:47:49;;;;;;;1.13;0.52;;;3.50;99.90;;;;;;5038216;28;20053;-66
2021/01/08 01:50:15;;;;;;;1.65;0.50;;;3.50;99.90;;;;;;5059984;28;20032;-66
2021/01/08 01:52:41;;;;;;;3.05;0.60;;;3.50;99.90;;;;;;5057050;28;20036;-66
2021/01/08 01:55:07;;;;;;;1.05;0.40;;;3.50;99.90;;;;;;5058834;28;20025;-66
2021/01/08 01:57:33;;;;;;;3.80;0.80;;;3.50;99.90;;;;;;5058603;28;20033;-66
2021/01/08 02:00:00;;;;;;;3.63;0.68;;;3.60;99.90;;;;;;5057332;28;20454;-66
2021/01/08 02:02:33;;;;;;;1.00;0.63;;;3.60;99.90;;;;;;5059759;28;20017;-66
2021/01/08 02:05:04;;;;;;;2.45;0.68;;;3.60;99.90;;;;;;5039235;28;20056;-65
2021/01/08 02:07:33;;;;;;;3.63;1.55;;;3.60;99.90;;;;;;5058970;28;20037;-66
2021/01/08 02:10:03;;;;;;;3.25;1.05;;;3.60;99.90;;;;;;5039111;28;20128;-66
2021/01/08 02:12:30;;;;;;;2.35;0.93;;;3.60;99.90;;;;;;5059240;28;20119;-66
2021/01/08 02:14:56;;;;;;;2.83;1.23;;;3.60;99.90;;;;;;5056613;28;20121;-67
2021/01/08 02:17:24;;;;;;;3.58;1.25;;;3.60;99.90;;;;;;5041860;28;20041;-66
2021/01/08 02:19:51;;;;;;;2.80;1.20;;;3.60;99.90;;;;;;5056084;28;20036;-67
2021/01/08 02:22:24;;;;;;;2.75;1.15;;;3.60;99.90;;;;;;5060154;28;20028;-65
2021/01/08 02:25:11;;;;;;;2.30;1.05;;;3.70;99.90;;;;;;5034880;28;20040;-66
2021/01/08 02:27:39;;;;;;;1.92;0.73;;;3.70;99.90;;;;;;5057939;28;20040;-66
2021/01/08 02:30:06;;;;;;;2.20;1.00;;;3.70;99.90;;;;;;5039675;28;20029;-66
2021/01/08 02:32:32;;;;;;;2.97;1.30;;;3.70;99.90;;;;;;5057859;28;20507;-66
2021/01/08 02:34:58;;;;;;;2.80;1.10;;;3.70;99.90;;;;;;5058614;28;20032;-66
2021/01/08 02:37:25;;;;;;;3.15;1.20;;;3.70;99.90;;;;;;5056763;28;20025;-66
2021/01/08 02:39:51;;;;;;;2.30;0.98;;;3.70;99.90;;;;;;5059447;28;20032;-67
2021/01/08 02:42:17;;;;;;;2.83;1.00;;;3.70;99.90;;;;;;5056336;28;20040;-67
2021/01/08 02:44:43;;;;;;;4.32;1.98;;;3.70;99.90;;;;;;5041852;28;20038;-66
2021/01/08 02:47:09;;;;;;;1.27;0.88;;;3.70;99.90;;;;;;5058664;28;20037;-66
2021/01/08 02:49:34;;;;;;;2.53;1.05;;;3.70;99.90;;;;;;5062043;28;20029;-66
2021/01/08 02:52:04;;;;;;;3.20;0.80;;;3.70;99.90;;;;;;5061668;28;20036;-66
2021/01/08 02:54:31;;;;;;;2.00;0.68;;;3.70;99.90;;;;;;5061588;28;20107;-67
2021/01/08 02:57:01;;;;;;;2.75;0.80;;;3.70;99.90;;;;;;5061965;28;20377;-66
2021/01/08 02:59:27;;;;;;;1.52;0.60;;;3.70;99.90;;;;;;5043039;28;20036;-66
2021/01/08 03:01:53;;;;;;;2.45;0.60;;;3.70;99.90;;;;;;5062435;28;20033;-67
2021/01/08 03:04:19;;;;;;;0.80;0.40;;;3.80;99.90;;;;;;5060241;28;20546;-66
2021/01/08 03:06:46;;;;;;;3.10;0.60;;;3.70;99.90;;;;;;5063071;28;20119;-66
2021/01/08 03:09:11;;;;;;;3.72;0.70;;;3.70;99.90;;;;;;5059650;28;20033;-67
2021/01/08 03:11:37;;;;;;;2.33;0.75;;;3.70;99.90;;;;;;5062223;28;20033;-67
2021/01/08 03:14:04;;;;;;;3.22;0.50;;;3.70;99.90;;;;;;5042684;28;20032;-65
2021/01/08 03:16:30;;;;;;;4.22;1.08;;;3.60;99.90;;;;;;5041657;28;20500;-66
2021/01/08 03:18:55;;;;;;;1.58;0.57;;;3.60;99.90;;;;;;5061534;28;20024;-65
2021/01/08 03:21:21;;;;;;;2.10;0.60;;;3.60;99.90;;;;;;5059927;28;20512;-67
2021/01/08 03:23:47;;;;;;;1.00;0.32;;;3.70;99.90;;;;;;5045194;28;20131;-66
2021/01/08 03:26:12;;;;;;;1.48;0.50;;;3.70;99.90;;;;;;5037382;28;20094;-65
2021/01/08 03:28:38;;;;;;;2.85;0.50;;;3.70;99.90;;;;;;5062063;28;20037;-67
2021/01/08 03:31:03;;;;;;;2.03;0.40;;;3.70;99.90;;;;;;5060257;28;20024;-67
2021/01/08 03:33:29;;;;;;;1.27;0.22;;;3.70;99.90;;;;;;5061035;28;20358;-67
2021/01/08 03:35:54;;;;;;;1.17;0.47;;;3.70;99.90;;;;;;5061340;28;20445;-72
2021/01/08 03:38:20;;;;;;;1.80;1.02;;;3.60;99.90;;;;;;5059825;28;20439;-67
2021/01/08 03:40:46;;;;;;;0.82;0.30;;;3.70;99.90;;;;;;5044747;28;20032;-66
2021/01/08 03:43:11;;;;;;;2.60;0.50;;;3.60;99.90;;;;;;5054400;28;20489;-66
2021/01/08 03:45:37;;;;;;;0.93;0.35;;;3.70;99.90;;;;;;5044167;28;20488;-66
2021/01/08 03:48:04;;;;;;;1.55;0.47;;;3.70;99.90;;;;;;5041863;28;20074;-66
2021/01/08 03:50:30;;;;;;;2.40;0.40;;;3.70;99.90;;;;;;5060902;28;20037;-66
2021/01/08 03:52:55;;;;;;;2.22;0.52;;;3.70;99.90;;;;;;5061195;28;20020;-66
2021/01/08 03:55:21;;;;;;;1.23;0.50;;;3.70;99.90;;;;;;5041506;28;20033;-65
2021/01/08 03:57:47;;;;;;;4.20;0.50;;;3.70;99.90;;;;;;5044281;28;20025;-67
2021/01/08 04:00:13;;;;;;;1.85;0.63;;;3.70;99.90;;;;;;5058732;28;20511;-67
2021/01/08 04:02:38;;;;;;;1.50;0.50;;;3.60;99.90;;;;;;5061886;28;20025;-67
2021/01/08 04:05:04;;;;;;;0.95;0.30;;;3.70;99.90;;;;;;5041880;28;20390;-65
2021/01/08 04:07:31;;;;;;;1.10;0.40;;;3.60;99.90;;;;;;5060236;28;20060;-67
2021/01/08 04:09:56;;;;;;;5.18;0.70;;;3.60;99.90;;;;;;5043024;28;20041;-66
2021/01/08 04:12:22;;;;;;;2.00;0.70;;;3.60;99.90;;;;;;5039031;28;20041;-66
2021/01/08 04:14:48;;;;;;;1.15;0.60;;;3.60;99.90;;;;;;5061744;28;20045;-67
2021/01/08 04:17:13;;;;;;;1.73;0.70;;;3.60;99.90;;;;;;5030828;28;20041;-66
2021/01/08 04:19:39;;;;;;;2.10;0.50;;;3.60;99.90;;;;;;5043801;28;20089;-66
2021/01/08 04:22:04;;;;;;;2.75;0.52;;;3.60;99.90;;;;;;5059177;28;20101;-67
2021/01/08 04:24:30;;;;;;;0.77;0.43;;;3.60;99.90;;;;;;5060041;28;20524;-66
2021/01/08 04:26:55;;;;;;;2.08;0.77;;;3.60;99.90;;;;;;5060091;28;20028;-67
2021/01/08 04:29:21;;;;;;;1.30;0.75;;;3.60;99.90;;;;;;5058715;28;20098;-67
2021/01/08 04:31:46;;;;;;;1.27;0.50;;;3.60;99.90;;;;;;5061157;28;20089;-66
2021/01/08 04:34:12;;;;;;;7.15;0.90;;;3.60;99.90;;;;;;5058409;28;20169;-66
2021/01/08 04:36:37;;;;;;;0.90;0.40;;;3.60;99.90;;;;;;5061004;28;20122;-66
2021/01/08 04:39:04;;;;;;;1.50;0.47;;;3.60;99.90;;;;;;5041290;28;20041;-66
2021/01/08 04:41:30;;;;;;;3.08;0.75;;;3.60;99.90;;;;;;5059718;28;20412;-66
2021/01/08 04:43:56;;;;;;;1.48;0.57;;;3.60;99.90;;;;;;5041814;28;20033;-66
2021/01/08 04:46:25;;;;;;;1.77;0.60;;;3.60;99.90;;;;;;5040915;28;20037;-67
2021/01/08 04:49:11;;;;;;;2.92;0.50;;;3.60;99.90;;;;;;5042630;28;20121;-66
2021/01/08 04:51:38;;;;;;;3.03;0.70;;;3.60;99.90;;;;;;5060574;28;20052;-66
2021/01/08 04:54:04;;;;;;;2.95;0.60;;;3.60;99.90;;;;;;5040585;28;20112;-67
2021/01/08 04:56:40;;;;;;;2.38;0.77;;;3.60;99.90;;;;;;5042339;28;20048;-66
2021/01/08 04:59:06;;;;;;;2.55;0.60;;;3.60;99.90;;;;;;5058056;28;20082;-67
2021/01/08 05:01:31;;;;;;;2.13;0.45;;;3.60;99.90;;;;;;5060554;28;20037;-66
2021/01/08 05:03:57;;;;;;;1.42;0.65;;;3.60;99.90;;;;;;5058863;28;20547;-66
2021/01/08 05:06:23;;;;;;;1.38;0.68;;;3.60;99.90;;;;;;5041228;28;20466;-66
2021/01/08 05:08:48;;;;;;;2.75;0.50;;;3.60;99.90;;;;;;5059399;28;20029;-67
2021/01/08 05:11:28;;;;;;;3.75;0.80;;;3.50;99.90;;;;;;5040543;28;20044;-66
2021/01/08 05:13:59;;;;;;;1.02;0.65;;;3.50;99.90;;;;;;5059002;28;20044;-66
2021/01/08 05:16:28;;;;;;;0.88;0.55;;;3.50;99.90;;;;;;5059875;28;20037;-67
2021/01/08 05:18:55;;;;;;;3.67;0.70;;;3.50;99.90;;;;;;5058715;28;20572;-66
2021/01/08 05:21:24;;;;;;;2.25;0.85;;;3.40;99.90;;;;;;5058963;28;20075;-66
2021/01/08 05:23:52;;;;;;;4.10;0.70;;;3.40;99.90;;;;;;5041019;28;20036;-66
2021/01/08 05:26:18;;;;;;;3.17;1.20;;;3.40;99.90;;;;;;5058468;28;20033;-67
2021/01/08 05:28:50;;;;;;;3.47;0.70;;;3.40;99.90;;;;;;5042114;28;20526;-67
2021/01/08 05:31:18;;;;;;;3.72;0.75;;;3.30;99.90;;;;;;5058313;28;20553;-66
2021/01/08 05:33:43;;;;;;;2.47;0.90;;;3.30;99.90;;;;;;5059793;28;20108;-65
2021/01/08 05:36:11;;;;;;;4.05;1.10;;;3.30;99.90;;;;;;5057167;28;20136;-67
2021/01/08 05:38:40;;;;;;;3.28;1.25;;;3.20;99.90;;;;;;5038820;28;20035;-65
2021/01/08 05:41:07;;;;;;;4.70;1.20;;;3.10;99.90;;;;;;5039735;28;20444;-66
2021/01/08 05:43:33;;;;;;;1.83;0.90;;;3.10;99.90;;;;;;5060287;28;20067;-66
2021/01/08 05:46:23;;;;;;;1.90;0.98;;;3.10;99.90;;;;;;5057668;28;20722;-66
2021/01/08 05:48:53;;;;;;;3.08;1.00;;;3.10;99.90;;;;;;5055924;28;20029;-66
2021/01/08 05:51:22;;;;;;;1.77;0.80;;;3.00;99.90;;;;;;5059280;28;20112;-66
2021/01/08 05:53:50;;;;;;;1.98;0.82;;;3.00;99.90;;;;;;5037933;28;20025;-66
2021/01/08 05:56:17;;;;;;;2.88;1.05;;;3.00;99.90;;;;;;5042013;28;20381;-66
2021/01/08 05:58:46;;;;;;;2.88;1.13;;;2.90;99.90;;;;;;5038844;28;20115;-66
2021/01/08 06:01:12;;;;;;;3.55;1.23;;;2.90;99.90;;;;;;5060312;28;20028;-67
2021/01/08 06:03:39;;;;;;;2.95;1.23;;;2.90;99.90;;;;;;5039074;28;20033;-66
2021/01/08 06:06:05;;;;;;;3.42;1.08;;;2.90;99.90;;;;;;5059878;28;20485;-67
2021/01/08 06:08:32;;;;;;;2.63;1.00;;;2.90;99.90;;;;;;5057296;28;20424;-67
2021/01/08 06:11:02;;;;;;;4.32;1.05;;;2.90;99.90;;;;;;5059301;28;20035;-67
2021/01/08 06:13:30;;;;;;;1.73;0.93;;;2.90;99.90;;;;;;5057844;28;20514;-67
2021/01/08 06:15:57;;;;;;;4.22;1.42;;;3.00;99.90;;;;;;5040087;28;20038;-67
2021/01/08 06:18:24;;;;;;;2.28;0.88;;;2.90;99.90;;;;;;5040351;28;20032;-66
2021/01/08 06:21:03;;;;;;;3.22;0.95;;;3.00;99.90;;;;;;5058464;28;20335;-67
2021/01/08 06:23:37;;;;;;;4.38;1.00;;;3.00;99.90;;;;;;5061470;28;20033;-66
2021/01/08 06:26:07;;;;;;;3.65;1.15;;;3.00;99.90;;;;;;5056700;28;20473;-66
2021/01/08 06:28:36;;;;;;;4.03;1.13;;;3.10;99.90;;;;;;5057044;28;20112;-66
2021/01/08 06:31:30;;;;;;;3.78;1.63;;;3.10;99.90;;;;;;5056544;28;20029;-66
2021/01/08 06:34:00;;;;;;;1.60;0.70;;;3.10;99.90;;;;;;5054178;28;20145;-66
2021/01/08 06:36:33;;;;;;;4.57;1.35;;;3.10;99.90;;;;;;5061742;28;20481;-66
2021/01/08 06:39:06;;;;;;;3.83;1.55;;;3.20;99.90;;;;;;5063724;28;20032;-66
2021/01/08 06:41:32;;;;;;;4.38;1.40;;;3.20;99.90;;;;;;5057503;28;20398;-67
2021/01/08 06:44:03;;;;;;;2.88;1.02;;;3.20;99.90;;;;;;5045222;28;20032;-66
2021/01/08 06:46:30;;;;;;;3.30;1.10;;;3.20;99.90;;;;;;5060977;28;20037;-66
2021/01/08 06:48:59;;;;;;;3.42;1.30;;;3.20;99.90;;;;;;5044840;28;20106;-65
2021/01/08 06:51:30;;;;;;;2.33;1.30;;;3.20;99.90;;;;;;5043790;28;20093;-66
2021/01/08 06:53:58;;;;;;;4.50;1.30;;;3.20;99.90;;;;;;5063272;28;20040;-66
2021/01/08 06:56:28;;;;;;;2.47;1.00;;;3.20;99.90;;;;;;5061782;28;20029;-67
2021/01/08 06:58:57;;;;;;;2.65;0.93;;;3.30;99.90;;;;;;5063506;28;20071;-67
2021/01/08 07:01:32;;;;;;;2.50;1.20;;;3.20;99.90;;;;;;5061260;28;20043;-65
2021/01/08 07:03:59;;;;;;;3.90;1.30;;;3.20;99.90;;;;;;5064699;28;20040;-66
2021/01/08 07:06:25;;;;;;;2.58;1.65;;;3.20;99.90;;;;;;5062835;28;20514;-65
2021/01/08 07:08:51;;;;;;;2.58;0.93;;;3.20;99.90;;;;;;5063496;28;20037;-67
2021/01/08 07:11:25;;;;;;;8.60;1.70;;;3.30;99.90;;;;;;5042877;28;20044;-67
2021/01/08 07:14:04;;;;;;;2.80;1.25;;;3.20;99.90;;;;;;5062396;28;20615;-66
2021/01/08 07:16:29;;;;;;;3.17;1.23;;;3.20;99.90;;;;;;5037638;28;20048;-66
2021/01/08 07:19:08;;;;;;;1.85;1.08;;;3.20;99.90;;;;;;5044725;28;20028;-65
2021/01/08 07:21:40;;;;;;;2.83;1.30;;;3.20;99.90;;;;;;5056585;28;20040;-67
2021/01/08 07:24:10;;;;;;;4.20;1.10;;;3.20;99.90;;;;;;5044804;28;20037;-65
2021/01/08 07:26:36;;;;;;;7.63;1.92;;;3.20;99.90;;;;;;5060113;28;20112;-67
2021/01/08 07:29:04;;;;;;;6.13;1.10;;;3.20;99.90;;;;;;5063137;28;20170;-66
2021/01/08 07:31:31;;;;;;;6.57;2.08;;;3.20;99.90;;;;;;5055344;28;20485;-66
2021/01/08 07:33:58;;;;;;;3.65;1.38;;;3.20;99.90;;;;;;5062575;28;20378;-67
2021/01/08 07:36:26;;;;;;;2.55;1.40;;;3.20;99.90;;;;;;5041528;28;20032;-65
2021/01/08 07:38:52;;;;;;;3.90;1.38;;;3.20;99.90;;;;;;5062243;28;20044;-67
2021/01/08 07:41:33;;;;;;;3.63;1.30;;;3.20;99.90;;;;;;5059928;28;20378;-65
2021/01/08 07:43:59;;;;;;;;;;;3.20;99.90;;;;;;5055906;28;20044;-66
2021/01/08 07:46:29;;;;;;;3.03;0.90;;;3.20;99.90;;;;;;5043852;28;19916;-66
2021/01/08 07:49:00;;;;;;;3.15;1.10;;;3.20;99.90;;;;;;5060954;28;20044;-66
2021/01/08 07:51:48;;;;;;;4.53;1.50;;;3.10;99.90;;;;;;5057111;28;20044;-66
2021/01/08 07:54:14;;;;;;;5.28;1.40;;;3.10;99.90;;;;;;5052475;28;20041;-66
2021/01/08 07:57:02;;;;;;;3.35;1.45;;;3.10;99.90;;;;;;5049762;28;20036;-66
2021/01/08 07:59:29;;;;;;;4.70;1.30;;;3.10;99.90;;;;;;5031453;28;20075;-66
2021/01/08 08:01:55;;;;;;;3.20;1.35;;;3.10;99.90;;;;;;5050687;28;20040;-66
2021/01/08 08:04:22;;;;;;;3.28;1.55;;;3.10;99.90;;;;;;5051525;28;20048;-64
2021/01/08 08:06:49;;;;;;;2.67;1.05;;;3.10;99.90;;;;;;5054002;28;20396;-66
2021/01/08 08:09:16;;;;;;;2.28;1.10;;;3.00;99.90;;;;;;5041877;28;20383;-67
2021/01/08 08:11:41;;;;;;;3.83;1.60;;;3.00;99.90;;;;;;5060696;28;20540;-64
2021/01/08 08:14:13;;;;;;;5.15;1.15;;;3.00;99.90;;;;;;5058570;28;20080;-67
2021/01/08 08:16:40;;;;;;;4.53;1.40;;;2.90;99.90;;;;;;5060720;28;20032;-66
2021/01/08 08:19:07;;;;;;;5.32;1.73;;;2.90;99.90;;;;;;5041642;28;20037;-65
2021/01/08 08:21:34;;;;;;;5.80;1.27;;;2.90;99.90;;;;;;5059541;28;20175;-66
2021/01/08 08:24:01;;;;;;;4.47;1.48;;;2.80;99.90;;;;;;5038215;28;20037;-67
2021/01/08 08:26:28;;;;;;;3.38;1.83;;;2.80;99.90;;;;;;5051686;28;20098;-66
2021/01/08 08:29:04;;;;;;;4.15;1.17;;;2.80;99.90;;;;;;5053607;28;20619;-67
2021/01/08 08:31:32;;;;;;;2.45;1.15;;;2.70;99.90;;;;;;5049424;28;20071;-66
2021/01/08 08:33:59;;;;;;;8.20;2.15;;;2.70;99.90;;;;;;5063446;28;20025;-66
2021/01/08 08:36:27;;;;;;;1.83;0.70;;;2.70;99.90;;;;;;5040831;28;20148;-67
2021/01/08 08:38:56;;;;;;;5.20;1.20;;;2.70;99.90;;;;;;5060078;28;20060;-66
2021/01/08 08:41:21;;;;;;;2.97;1.42;;;2.70;99.90;;;;;;5057210;28;20048;-66
2021/01/08 08:43:47;;;;;;;3.80;1.20;;;2.70;99.90;;;;;;5059685;28;20120;-65
2021/01/08 08:46:12;;;;;;;2.90;1.33;;;2.70;99.90;;;;;;5059192;28;20047;-65
2021/01/08 08:48:39;;;;;;;3.15;1.30;;;2.70;99.90;;;;;;5060180;28;20033;-66
2021/01/08 08:51:05;;;;;;;3.22;1.40;;;2.70;99.90;;;;;;5051593;28;20536;-65
2021/01/08 08:53:31;;;;;;;3.00;1.25;;;2.70;99.90;;;;;;5051872;28;20091;-63
2021/01/08 08:55:57;;;;;;;4.30;1.75;;;2.70;99.90;;;;;;5051023;28;20041;-64
2021/01/08 08:58:22;;;;;;;5.43;1.63;;;2.80;99.90;;;;;;5049887;28;20083;-65
2021/01/08 09:00:48;;;;;;;5.05;1.42;;;2.80;99.90;;;;;;5053730;28;20087;-66
2021/01/08 09:03:19;;;;;;;5.68;1.10;;;2.80;99.90;;;;;;5053521;28;20649;-67
2021/01/08 09:05:46;;;;;;;5.85;2.17;;;2.90;99.90;;;;;;5040738;28;20048;-65
2021/01/08 09:08:26;;;;;;;2.10;1.17;;;3.00;99.90;;;;;;5039152;28;20033;-67
2021/01/08 09:10:56;;;;;;;2.40;1.30;;;3.00;99.90;;;;;;5060460;28;20452;-66
2021/01/08 09:13:32;;;;;;;3.08;1.35;;;3.10;99.90;;;;;;5057414;28;20059;-67
2021/01/08 09:16:11;;;;;;;2.83;1.45;;;3.10;99.90;;;;;;5054634;28;20032;-67
2021/01/08 09:18:45;;;;;;;2.58;1.35;;;3.20;99.90;;;;;;5059640;28;20055;-66
2021/01/08 09:21:17;;;;;;;6.10;1.30;;;3.20;99.90;;;;;;5041104;28;20041;-66
2021/01/08 09:23:46;;;;;;;3.28;1.73;;;3.20;99.90;;;;;;5060475;28;20439;-66
2021/01/08 09:26:17;;;;;;;4.95;1.52;;;3.20;99.90;;;;;;5059080;28;20109;-67
2021/01/08 09:28:53;;;;;;;3.40;1.23;;;3.30;99.90;;;;;;5059219;28;20025;-66
2021/01/08 09:31:37;;;;;;;3.05;1.38;;;3.30;99.90;;;;;;5056204;28;20095;-66
2021/01/08 09:34:03;;;;;;;5.32;1.50;;;3.40;99.90;;;;;;5046824;28;20037;-67
2021/01/08 09:36:34;;;;;;;4.10;2.05;;;3.40;99.90;;;;;;5051788;28;20036;-67
2021/01/08 09:39:02;;;;;;;1.77;0.95;;;3.40;99.90;;;;;;5039179;28;20123;-67
2021/01/08 09:41:29;;;;;;;3.08;1.13;;;3.40;99.90;;;;;;5050062;28;20161;-66
2021/01/08 09:43:59;;;;;;;2.63;1.25;;;3.40;99.90;;;;;;5058254;28;20036;-67
2021/01/08 09:46:25;;;;;;;6.00;1.15;;;3.50;99.90;;;;;;5054317;28;20030;-65
2021/01/08 09:48:51;;;;;;;5.20;1.15;;;3.50;99.90;;;;;;5062356;28;20060;-66
2021/01/08 09:51:17;;;;;;;3.70;1.30;;;3.50;99.90;;;;;;5057656;28;20040;-66
2021/01/08 09:53:52;;;;;;;2.25;0.90;;;3.60;99.90;;;;;;5059911;28;20032;-67
2021/01/08 09:56:18;;;;;;;3.00;1.05;;;3.70;99.90;;;;;;5042054;28;20033;-67
2021/01/08 09:58:44;;;;;;;1.50;0.75;;;3.80;99.90;;;;;;5059997;28;20409;-67
2021/01/08 10:01:12;;;;;;;4.65;1.88;;;3.90;99.90;;;;;;5058819;28;20033;-66
2021/01/08 10:03:39;;;;;;;3.95;1.02;;;4.00;99.90;;;;;;5059445;28;20477;-67
2021/01/08 10:06:14;;;;;;;1.95;0.93;;;3.90;99.90;;;;;;5057995;28;20059;-66
2021/01/08 10:08:40;;;;;;;1.50;0.65;;;3.90;99.90;;;;;;5059351;28;20037;-67
2021/01/08 10:11:06;;;;;;;2.00;0.52;;;3.90;99.90;;;;;;5038117;28;20470;-65
2021/01/08 10:13:32;;;;;;;4.55;0.65;;;4.00;99.90;;;;;;5037601;28;20117;-66
2021/01/08 10:16:05;;;;;;;1.40;0.88;;;4.10;99.90;;;;;;5055592;28;20501;-66
2021/01/08 10:18:36;;;;;;;1.63;0.63;;;4.00;99.90;;;;;;5037574;28;20029;-67
2021/01/08 10:21:05;;;;;;;1.63;1.00;;;4.10;99.90;;;;;;5038274;28;20025;-65
2021/01/08 10:23:39;;;;;;;1.55;0.60;;;4.20;99.90;;;;;;5054697;28;20029;-67
2021/01/08 10:26:18;;;;;;;1.08;0.60;;;4.20;99.90;;;;;;5039425;28;20127;-66
2021/01/08 10:28:54;;;;;;;2.10;0.50;;;4.30;99.90;;;;;;5059444;28;20024;-67
2021/01/08 10:31:21;;;;;;;1.05;0.50;;;4.40;99.90;;;;;;5053291;28;20021;-67
2021/01/08 10:33:46;;;;;;;0.47;0.13;;;4.40;99.90;;;;;;5059815;28;20025;-65
2021/01/08 10:36:12;;;;;;;1.30;0.50;;;4.40;99.90;;;;;;5057438;28;20036;-66
2021/01/08 10:38:38;;;;;;;1.45;0.52;;;4.40;99.90;;;;;;5040034;28;20040;-67
2021/01/08 10:41:04;;;;;;;0.73;0.47;;;4.40;99.90;;;;;;5058844;28;20043;-66
2021/01/08 10:43:34;;;;;;;0.90;0.38;;;4.50;99.90;;;;;;5057750;28;20067;-66
2021/01/08 10:46:02;;;;;;;0.50;0.23;;;4.50;99.90;;;;;;5059487;28;20115;-65
2021/01/08 10:48:29;;;;;;;0.80;0.20;;;4.40;99.90;;;;;;5057072;28;20156;-65
2021/01/08 10:50:54;;;;;;;1.17;0.40;;;4.40;99.90;;;;;;5060128;28;20020;-66
2021/01/08 10:53:20;;;;;;;0.60;0.30;;;4.40;99.90;;;;;;5056667;28;20051;-66
2021/01/08 10:55:47;;;;;;;0.70;0.35;;;4.40;99.90;;;;;;5055214;28;20021;-66
2021/01/08 10:58:15;;;;;;;2.38;0.60;;;4.40;99.90;;;;;;5058838;28;20020;-67
2021/01/08 11:00:41;;;;;;;2.53;0.40;;;4.50;99.90;;;;;;5034148;28;20028;-66
2021/01/08 11:03:06;;;;;;;1.52;0.43;;;4.60;99.90;;;;;;5038580;28;20394;-66
2021/01/08 11:05:32;;;;;;;1.13;0.40;;;4.50;99.90;;;;;;5038560;28;20040;-66
2021/01/08 11:07:57;;;;;;;0.82;0.50;;;4.60;99.90;;;;;;5059501;28;20044;-67
2021/01/08 11:10:23;;;;;;;0.98;0.50;;;4.50;99.90;;;;;;5060402;28;20029;-66
2021/01/08 11:12:48;;;;;;;7.20;2.92;;;4.60;99.90;;;;;;5061528;28;20138;-66
2021/01/08 11:15:14;;;;;;;2.83;1.42;;;4.50;99.90;;;;;;5053338;28;20024;-66
2021/01/08 11:17:39;;;;;;;1.10;0.68;;;4.50;99.90;;;;;;5051769;28;20048;-64
2021/01/08 11:20:06;;;;;;;1.75;0.70;;;4.50;99.90;;;;;;5051272;28;20045;-65
2021/01/08 11:22:32;;;;;;;1.27;0.63;;;4.60;99.90;;;;;;5055387;28;20114;-65
2021/01/08 11:24:57;;;;;;;2.83;0.70;;;4.50;99.90;;;;;;5055239;28;20052;-64
2021/01/08 11:27:23;;;;;;;0.65;0.35;;;4.50;99.90;;;;;;5049486;28;20048;-65
2021/01/08 11:29:49;;;;;;;2.67;0.55;;;4.70;99.90;;;;;;5030639;28;20103;-66
2021/01/08 11:32:14;;;;;;;2.70;0.50;;;4.70;99.90;;;;;;5055258;28;20660;-64
2021/01/08 11:34:40;;;;;;;1.90;1.10;;;4.80;99.90;;;;;;5053448;28;20033;-65
2021/01/08 11:37:09;;;;;;;0.77;0.45;;;4.80;99.90;;;;;;5041418;28;20029;-65
2021/01/08 11:39:35;;;;;;;0.82;0.55;;;4.80;99.90;;;;;;5054269;28;20040;-65
2021/01/08 11:42:00;;;;;;;1.75;0.70;;;4.80;99.90;;;;;;5055164;28;20032;-64
2021/01/08 11:44:26;;;;;;;1.73;0.70;;;4.70;99.90;;;;;;5037312;28;20037;-65
2021/01/08 11:46:52;;;;;;;0.98;0.50;;;4.70;99.90;;;;;;5055037;28;20040;-64
2021/01/08 11:49:18;;;;;;;1.58;0.60;;;4.70;99.90;;;;;;5055730;28;20099;-64
2021/01/08 11:51:44;;;;;;;1.23;0.50;;;4.80;99.90;;;;;;5051368;28;20045;-65
2021/01/08 11:54:10;;;;;;;0.90;0.40;;;4.90;99.90;;;;;;5054426;28;20115;-65
2021/01/08 11:56:36;;;;;;;3.80;0.50;;;4.90;99.90;;;;;;5056301;28;20112;-64
2021/01/08 11:59:01;;;;;;;1.02;0.60;;;4.90;99.90;;;;;;5056046;28;20122;-65
2021/01/08 12:01:28;;;;;;;2.17;0.45;;;4.90;99.90;;;;;;5045072;28;20498;-66
2021/01/08 12:03:55;;;;;;;1.42;0.50;;;4.90;99.90;;;;;;5056530;28;20043;-64
2021/01/08 12:06:28;;;;;;;1.02;0.35;;;5.00;99.90;;;;;;5056069;28;20028;-64
2021/01/08 12:08:59;;;;;;;3.22;1.38;;;5.00;99.90;;;;;;5056805;28;20036;-64
2021/01/08 12:11:25;;;;;;;0.90;0.50;;;5.00;99.90;;;;;;5059856;28;20027;-64
2021/01/08 12:13:51;;;;;;;4.22;0.50;;;5.00;99.90;;;;;;5051669;28;20040;-64
2021/01/08 12:16:31;;;;;;;0.93;0.40;;;5.00;99.90;;;;;;5062984;28;20028;-66
2021/01/08 12:18:57;;;;;;;1.70;0.57;;;5.00;99.90;;;;;;5061707;28;20036;-65
2021/01/08 12:21:22;;;;;;;1.58;0.38;;;4.90;99.90;;;;;;5059399;28;20091;-65
2021/01/08 12:23:49;;;;;;;2.20;0.40;;;4.90;99.90;;;;;;5037844;28;20049;-64
2021/01/08 12:26:16;;;;;;;0.65;0.40;;;4.80;99.90;;;;;;5044862;28;20037;-64
2021/01/08 12:28:42;;;;;;;0.98;0.50;;;4.70;99.90;;;;;;5054998;28;20039;-65
2021/01/08 12:31:08;;;;;;;0.80;0.38;;;4.70;99.90;;;;;;5055327;28;20025;-66
2021/01/08 12:33:34;;;;;;;1.45;0.35;;;4.70;99.90;;;;;;5063405;28;20083;-65
2021/01/08 12:35:59;;;;;;;0.82;0.30;;;4.70;99.90;;;;;;5061776;28;20078;-66
2021/01/08 12:38:25;;;;;;;0.68;0.28;;;4.80;99.90;;;;;;5059855;28;20208;-65
2021/01/08 12:40:51;;;;;;;1.15;0.38;;;4.80;99.90;;;;;;5060102;28;20119;-66
2021/01/08 12:43:16;;;;;;;0.57;0.30;;;5.00;99.90;;;;;;5059065;28;20528;-67
2021/01/08 12:45:42;;;;;;;0.47;0.17;;;5.00;99.90;;;;;;5058272;28;20044;-66
2021/01/08 12:48:08;;;;;;;0.90;0.40;;;5.10;99.90;;;;;;5061225;28;20439;-66
2021/01/08 12:50:33;;;;;;;1.65;0.50;;;5.10;99.90;;;;;;5054404;28;20079;-68
2021/01/08 12:53:02;;;;;;;0.30;0.20;;;5.20;99.90;;;;;;5060586;28;20102;-65
2021/01/08 12:55:27;;;;;;;0.60;0.32;;;5.20;99.90;;;;;;5054390;28;20036;-68
2021/01/08 12:57:53;;;;;;;0.30;0.20;;;5.30;99.90;;;;;;5056151;28;20520;-65
2021/01/08 13:00:19;;;;;;;0.60;0.25;;;5.30;99.90;;;;;;5057920;28;20056;-64